sensor_id;sensor_type;location;lat;lon;timestamp;P1;durP1;ratioP1;P2;durP2;ratioP2
75691;SDS011;64307;52.508;6.090;2023-02-12T00:00:07;25.70;;;12.13;;
75691;SDS011;64307;52.508;6.090;2023-02-12T00:02:34;24.48;;;11.68;;
75691;SDS011;64307;52.508;6.090;2023-02-12T00:04:59;26.23;;;12.80;;
75691;SDS011;64307;52.508;6.090;2023-02-12T00:07:24;22.90;;;11.77;;
75691;SDS011;64307;52.508;6.090;2023-02-12T00:09:50;23.13;;;11.95;;
75691;SDS011;64307;52.508;6.090;2023-02-12T00:12:15;27.52;;;12.93;;
75691;SDS011;64307;52.508;6.090;2023-02-12T00:14:41;32.20;;;13.25;;
75691;SDS011;64307;52.508;6.090;2023-02-12T00:17:06;29.42;;;13.52;;
75691;SDS011;64307;52.508;6.090;2023-02-12T00:19:31;32.28;;;15.20;;
75691;SDS011;64307;52.508;6.090;2023-02-12T00:21:57;34.75;;;15.65;;
75691;SDS011;64307;52.508;6.090;2023-02-12T00:24:23;30.00;;;14.75;;
75691;SDS011;64307;52.508;6.090;2023-02-12T00:26:49;37.20;;;15.77;;
75691;SDS011;64307;52.508;6.090;2023-02-12T00:29:15;31.65;;;14.15;;
75691;SDS011;64307;52.508;6.090;2023-02-12T00:31:40;35.38;;;14.77;;
75691;SDS011;64307;52.508;6.090;2023-02-12T00:34:06;30.08;;;14.75;;
75691;SDS011;64307;52.508;6.090;2023-02-12T00:36:31;26.65;;;13.43;;
75691;SDS011;64307;52.508;6.090;2023-02-12T00:38:57;28.80;;;14.95;;
75691;SDS011;64307;52.508;6.090;2023-02-12T00:41:23;27.08;;;12.18;;
75691;SDS011;64307;52.508;6.090;2023-02-12T00:43:49;26.25;;;12.98;;
75691;SDS011;64307;52.508;6.090;2023-02-12T00:46:15;27.95;;;13.07;;
75691;SDS011;64307;52.508;6.090;2023-02-12T00:48:40;26.60;;;13.23;;
75691;SDS011;64307;52.508;6.090;2023-02-12T00:51:06;27.52;;;14.50;;
75691;SDS011;64307;52.508;6.090;2023-02-12T00:53:31;26.00;;;12.48;;
75691;SDS011;64307;52.508;6.090;2023-02-12T00:55:57;29.33;;;13.80;;
75691;SDS011;64307;52.508;6.090;2023-02-12T00:58:23;25.33;;;13.35;;
75691;SDS011;64307;52.508;6.090;2023-02-12T01:00:49;29.80;;;13.07;;
75691;SDS011;64307;52.508;6.090;2023-02-12T01:03:14;29.13;;;12.65;;
75691;SDS011;64307;52.508;6.090;2023-02-12T01:05:40;28.58;;;13.70;;
75691;SDS011;64307;52.508;6.090;2023-02-12T01:08:06;29.58;;;13.38;;
75691;SDS011;64307;52.508;6.090;2023-02-12T01:10:31;28.20;;;12.77;;
75691;SDS011;64307;52.508;6.090;2023-02-12T01:12:57;26.70;;;13.32;;
75691;SDS011;64307;52.508;6.090;2023-02-12T01:15:22;31.55;;;12.93;;
75691;SDS011;64307;52.508;6.090;2023-02-12T01:17:50;29.15;;;12.85;;
75691;SDS011;64307;52.508;6.090;2023-02-12T01:20:17;28.83;;;13.15;;
75691;SDS011;64307;52.508;6.090;2023-02-12T01:22:44;26.48;;;12.40;;
75691;SDS011;64307;52.508;6.090;2023-02-12T01:25:10;29.50;;;12.13;;
75691;SDS011;64307;52.508;6.090;2023-02-12T01:27:35;26.85;;;13.02;;
75691;SDS011;64307;52.508;6.090;2023-02-12T01:30:01;26.85;;;12.20;;
75691;SDS011;64307;52.508;6.090;2023-02-12T01:32:26;23.08;;;12.55;;
75691;SDS011;64307;52.508;6.090;2023-02-12T01:34:52;28.50;;;13.30;;
75691;SDS011;64307;52.508;6.090;2023-02-12T01:37:17;24.65;;;12.05;;
75691;SDS011;64307;52.508;6.090;2023-02-12T01:39:43;24.20;;;11.82;;
75691;SDS011;64307;52.508;6.090;2023-02-12T01:42:12;26.20;;;12.20;;
75691;SDS011;64307;52.508;6.090;2023-02-12T01:47:37;26.73;;;12.75;;
75691;SDS011;64307;52.508;6.090;2023-02-12T01:50:06;28.02;;;12.38;;
75691;SDS011;64307;52.508;6.090;2023-02-12T01:52:35;27.42;;;12.95;;
75691;SDS011;64307;52.508;6.090;2023-02-12T01:55:03;27.48;;;12.77;;
75691;SDS011;64307;52.508;6.090;2023-02-12T01:57:32;31.65;;;13.80;;
75691;SDS011;64307;52.508;6.090;2023-02-12T02:00:01;26.60;;;13.40;;
75691;SDS011;64307;52.508;6.090;2023-02-12T02:02:30;28.80;;;12.75;;
75691;SDS011;64307;52.508;6.090;2023-02-12T02:04:59;27.88;;;12.80;;
75691;SDS011;64307;52.508;6.090;2023-02-12T02:07:27;26.20;;;12.05;;
75691;SDS011;64307;52.508;6.090;2023-02-12T02:09:53;31.52;;;13.30;;
75691;SDS011;64307;52.508;6.090;2023-02-12T02:15:03;30.02;;;13.77;;
75691;SDS011;64307;52.508;6.090;2023-02-12T02:23:09;28.55;;;12.98;;
75691;SDS011;64307;52.508;6.090;2023-02-12T02:34:07;25.42;;;11.48;;
75691;SDS011;64307;52.508;6.090;2023-02-12T02:42:19;21.33;;;11.75;;
75691;SDS011;64307;52.508;6.090;2023-02-12T02:44:53;24.52;;;12.95;;
75691;SDS011;64307;52.508;6.090;2023-02-12T02:47:30;30.88;;;13.52;;
75691;SDS011;64307;52.508;6.090;2023-02-12T02:50:00;25.60;;;12.82;;
75691;SDS011;64307;52.508;6.090;2023-02-12T02:52:35;30.23;;;13.85;;
75691;SDS011;64307;52.508;6.090;2023-02-12T02:55:10;31.92;;;14.48;;
75691;SDS011;64307;52.508;6.090;2023-02-12T02:57:40;25.75;;;13.70;;
75691;SDS011;64307;52.508;6.090;2023-02-12T03:03:10;25.95;;;13.02;;
75691;SDS011;64307;52.508;6.090;2023-02-12T03:05:46;26.90;;;13.27;;
75691;SDS011;64307;52.508;6.090;2023-02-12T03:08:16;26.90;;;13.38;;
75691;SDS011;64307;52.508;6.090;2023-02-12T03:10:51;29.70;;;14.20;;
75691;SDS011;64307;52.508;6.090;2023-02-12T03:13:26;29.13;;;13.73;;
75691;SDS011;64307;52.508;6.090;2023-02-12T03:18:29;29.27;;;13.68;;
75691;SDS011;64307;52.508;6.090;2023-02-12T03:21:01;32.25;;;13.32;;
75691;SDS011;64307;52.508;6.090;2023-02-12T03:23:32;31.98;;;13.40;;
75691;SDS011;64307;52.508;6.090;2023-02-12T03:26:05;31.27;;;13.77;;
75691;SDS011;64307;52.508;6.090;2023-02-12T03:28:36;28.98;;;14.18;;
75691;SDS011;64307;52.508;6.090;2023-02-12T03:34:17;29.95;;;12.45;;
75691;SDS011;64307;52.508;6.090;2023-02-12T03:37:10;30.95;;;15.18;;
75691;SDS011;64307;52.508;6.090;2023-02-12T03:42:31;25.70;;;12.38;;
75691;SDS011;64307;52.508;6.090;2023-02-12T03:47:50;28.60;;;13.55;;
75691;SDS011;64307;52.508;6.090;2023-02-12T03:50:28;29.38;;;13.55;;
75691;SDS011;64307;52.508;6.090;2023-02-12T03:53:03;30.83;;;13.85;;
75691;SDS011;64307;52.508;6.090;2023-02-12T03:55:30;30.10;;;13.95;;
75691;SDS011;64307;52.508;6.090;2023-02-12T03:57:59;29.50;;;13.32;;
75691;SDS011;64307;52.508;6.090;2023-02-12T04:00:27;37.03;;;15.10;;
75691;SDS011;64307;52.508;6.090;2023-02-12T04:02:52;32.10;;;14.25;;
75691;SDS011;64307;52.508;6.090;2023-02-12T04:07:46;29.55;;;13.57;;
75691;SDS011;64307;52.508;6.090;2023-02-12T04:10:12;33.22;;;15.27;;
75691;SDS011;64307;52.508;6.090;2023-02-12T04:17:58;27.63;;;13.48;;
75691;SDS011;64307;52.508;6.090;2023-02-12T04:28:31;28.50;;;13.13;;
75691;SDS011;64307;52.508;6.090;2023-02-12T04:31:16;27.88;;;13.50;;
75691;SDS011;64307;52.508;6.090;2023-02-12T04:34:11;30.27;;;14.65;;
75691;SDS011;64307;52.508;6.090;2023-02-12T04:37:25;29.00;;;14.10;;
75691;SDS011;64307;52.508;6.090;2023-02-12T04:39:30;29.25;;;14.00;;
75691;SDS011;64307;52.508;6.090;2023-02-12T04:41:59;29.95;;;14.20;;
75691;SDS011;64307;52.508;6.090;2023-02-12T04:44:27;31.05;;;13.52;;
75691;SDS011;64307;52.508;6.090;2023-02-12T04:46:54;28.70;;;13.57;;
75691;SDS011;64307;52.508;6.090;2023-02-12T04:49:20;31.92;;;14.38;;
75691;SDS011;64307;52.508;6.090;2023-02-12T04:51:47;30.20;;;13.63;;
75691;SDS011;64307;52.508;6.090;2023-02-12T04:54:14;30.27;;;13.20;;
75691;SDS011;64307;52.508;6.090;2023-02-12T04:56:40;31.38;;;14.52;;
75691;SDS011;64307;52.508;6.090;2023-02-12T04:59:06;31.55;;;13.25;;
75691;SDS011;64307;52.508;6.090;2023-02-12T05:01:32;27.08;;;13.52;;
75691;SDS011;64307;52.508;6.090;2023-02-12T05:04:00;29.55;;;13.68;;
75691;SDS011;64307;52.508;6.090;2023-02-12T05:06:25;29.88;;;13.07;;
75691;SDS011;64307;52.508;6.090;2023-02-12T05:08:51;30.35;;;13.82;;
75691;SDS011;64307;52.508;6.090;2023-02-12T05:11:17;27.55;;;13.10;;
75691;SDS011;64307;52.508;6.090;2023-02-12T05:13:44;27.63;;;14.13;;
75691;SDS011;64307;52.508;6.090;2023-02-12T05:16:12;29.05;;;14.05;;
75691;SDS011;64307;52.508;6.090;2023-02-12T05:18:37;28.80;;;13.57;;
75691;SDS011;64307;52.508;6.090;2023-02-12T05:21:03;32.73;;;13.93;;
75691;SDS011;64307;52.508;6.090;2023-02-12T05:23:29;28.73;;;14.00;;
75691;SDS011;64307;52.508;6.090;2023-02-12T05:26:01;28.50;;;14.38;;
75691;SDS011;64307;52.508;6.090;2023-02-12T05:28:28;27.33;;;13.65;;
75691;SDS011;64307;52.508;6.090;2023-02-12T05:30:54;34.67;;;15.52;;
75691;SDS011;64307;52.508;6.090;2023-02-12T05:33:23;34.90;;;15.60;;
75691;SDS011;64307;52.508;6.090;2023-02-12T05:35:48;29.93;;;13.77;;
75691;SDS011;64307;52.508;6.090;2023-02-12T05:38:13;30.35;;;15.20;;
75691;SDS011;64307;52.508;6.090;2023-02-12T05:40:39;29.07;;;13.27;;
75691;SDS011;64307;52.508;6.090;2023-02-12T05:43:04;37.30;;;15.57;;
75691;SDS011;64307;52.508;6.090;2023-02-12T05:45:31;32.20;;;14.55;;
75691;SDS011;64307;52.508;6.090;2023-02-12T05:47:56;36.90;;;15.20;;
75691;SDS011;64307;52.508;6.090;2023-02-12T05:50:22;37.23;;;14.77;;
75691;SDS011;64307;52.508;6.090;2023-02-12T05:52:47;28.88;;;14.43;;
75691;SDS011;64307;52.508;6.090;2023-02-12T05:55:13;34.50;;;14.82;;
75691;SDS011;64307;52.508;6.090;2023-02-12T05:57:38;31.75;;;14.75;;
75691;SDS011;64307;52.508;6.090;2023-02-12T06:00:05;32.78;;;15.30;;
75691;SDS011;64307;52.508;6.090;2023-02-12T06:02:32;30.35;;;14.23;;
75691;SDS011;64307;52.508;6.090;2023-02-12T06:04:58;33.17;;;15.10;;
75691;SDS011;64307;52.508;6.090;2023-02-12T06:07:23;34.92;;;15.82;;
75691;SDS011;64307;52.508;6.090;2023-02-12T06:09:48;31.02;;;14.23;;
75691;SDS011;64307;52.508;6.090;2023-02-12T06:12:14;33.58;;;15.07;;
75691;SDS011;64307;52.508;6.090;2023-02-12T06:14:40;34.58;;;15.18;;
75691;SDS011;64307;52.508;6.090;2023-02-12T06:17:05;37.45;;;15.40;;
75691;SDS011;64307;52.508;6.090;2023-02-12T06:19:30;29.88;;;14.70;;
75691;SDS011;64307;52.508;6.090;2023-02-12T06:21:56;33.30;;;15.30;;
75691;SDS011;64307;52.508;6.090;2023-02-12T06:24:21;36.15;;;15.52;;
75691;SDS011;64307;52.508;6.090;2023-02-12T06:26:48;33.80;;;16.38;;
75691;SDS011;64307;52.508;6.090;2023-02-12T06:29:14;31.33;;;14.63;;
75691;SDS011;64307;52.508;6.090;2023-02-12T06:31:40;34.08;;;14.85;;
75691;SDS011;64307;52.508;6.090;2023-02-12T06:34:06;39.20;;;16.92;;
75691;SDS011;64307;52.508;6.090;2023-02-12T06:36:32;34.55;;;16.20;;
75691;SDS011;64307;52.508;6.090;2023-02-12T06:39:01;36.30;;;15.65;;
75691;SDS011;64307;52.508;6.090;2023-02-12T06:41:26;38.08;;;15.90;;
75691;SDS011;64307;52.508;6.090;2023-02-12T06:43:52;35.50;;;15.52;;
75691;SDS011;64307;52.508;6.090;2023-02-12T06:46:17;32.20;;;14.80;;
75691;SDS011;64307;52.508;6.090;2023-02-12T06:48:43;35.50;;;15.45;;
75691;SDS011;64307;52.508;6.090;2023-02-12T06:51:13;34.95;;;15.65;;
75691;SDS011;64307;52.508;6.090;2023-02-12T06:53:40;36.47;;;15.50;;
75691;SDS011;64307;52.508;6.090;2023-02-12T06:56:07;34.30;;;14.63;;
75691;SDS011;64307;52.508;6.090;2023-02-12T06:58:36;34.38;;;15.48;;
75691;SDS011;64307;52.508;6.090;2023-02-12T07:03:42;34.65;;;15.93;;
75691;SDS011;64307;52.508;6.090;2023-02-12T07:06:11;36.53;;;15.23;;
75691;SDS011;64307;52.508;6.090;2023-02-12T07:08:36;36.65;;;15.75;;
75691;SDS011;64307;52.508;6.090;2023-02-12T07:11:01;34.15;;;14.98;;
75691;SDS011;64307;52.508;6.090;2023-02-12T07:13:27;34.17;;;16.15;;
75691;SDS011;64307;52.508;6.090;2023-02-12T07:15:52;35.17;;;15.10;;
75691;SDS011;64307;52.508;6.090;2023-02-12T07:18:18;36.40;;;15.98;;
75691;SDS011;64307;52.508;6.090;2023-02-12T07:20:43;37.03;;;15.67;;
75691;SDS011;64307;52.508;6.090;2023-02-12T07:23:11;39.93;;;16.13;;
75691;SDS011;64307;52.508;6.090;2023-02-12T07:25:37;36.13;;;15.18;;
75691;SDS011;64307;52.508;6.090;2023-02-12T07:28:03;32.60;;;15.30;;
75691;SDS011;64307;52.508;6.090;2023-02-12T07:30:28;36.80;;;15.88;;
75691;SDS011;64307;52.508;6.090;2023-02-12T07:32:54;35.30;;;16.05;;
75691;SDS011;64307;52.508;6.090;2023-02-12T07:35:19;36.95;;;15.40;;
75691;SDS011;64307;52.508;6.090;2023-02-12T07:37:44;37.40;;;15.02;;
75691;SDS011;64307;52.508;6.090;2023-02-12T07:40:10;34.00;;;16.03;;
75691;SDS011;64307;52.508;6.090;2023-02-12T07:42:35;38.20;;;16.73;;
75691;SDS011;64307;52.508;6.090;2023-02-12T07:45:00;34.88;;;16.00;;
75691;SDS011;64307;52.508;6.090;2023-02-12T07:47:26;36.43;;;16.00;;
75691;SDS011;64307;52.508;6.090;2023-02-12T07:49:51;34.92;;;15.40;;
75691;SDS011;64307;52.508;6.090;2023-02-12T07:52:16;34.33;;;14.87;;
75691;SDS011;64307;52.508;6.090;2023-02-12T07:54:42;41.05;;;16.60;;
75691;SDS011;64307;52.508;6.090;2023-02-12T07:57:07;35.72;;;15.20;;
75691;SDS011;64307;52.508;6.090;2023-02-12T07:59:32;36.70;;;15.63;;
75691;SDS011;64307;52.508;6.090;2023-02-12T08:01:57;38.00;;;14.90;;
75691;SDS011;64307;52.508;6.090;2023-02-12T08:04:24;37.08;;;15.43;;
75691;SDS011;64307;52.508;6.090;2023-02-12T08:06:51;35.50;;;15.75;;
75691;SDS011;64307;52.508;6.090;2023-02-12T08:09:19;36.88;;;15.23;;
75691;SDS011;64307;52.508;6.090;2023-02-12T08:11:47;38.83;;;16.27;;
75691;SDS011;64307;52.508;6.090;2023-02-12T08:14:13;37.05;;;16.35;;
75691;SDS011;64307;52.508;6.090;2023-02-12T08:16:41;36.20;;;16.13;;
75691;SDS011;64307;52.508;6.090;2023-02-12T08:19:07;38.65;;;15.40;;
75691;SDS011;64307;52.508;6.090;2023-02-12T08:21:33;36.10;;;15.60;;
75691;SDS011;64307;52.508;6.090;2023-02-12T08:23:58;35.63;;;15.23;;
75691;SDS011;64307;52.508;6.090;2023-02-12T08:28:57;36.20;;;15.85;;
75691;SDS011;64307;52.508;6.090;2023-02-12T08:31:25;36.38;;;15.95;;
75691;SDS011;64307;52.508;6.090;2023-02-12T08:33:52;37.47;;;15.70;;
75691;SDS011;64307;52.508;6.090;2023-02-12T08:36:23;34.40;;;15.32;;
75691;SDS011;64307;52.508;6.090;2023-02-12T08:38:51;35.80;;;16.38;;
75691;SDS011;64307;52.508;6.090;2023-02-12T08:41:21;35.65;;;15.85;;
75691;SDS011;64307;52.508;6.090;2023-02-12T08:43:49;37.78;;;15.90;;
75691;SDS011;64307;52.508;6.090;2023-02-12T08:46:23;32.83;;;15.43;;
75691;SDS011;64307;52.508;6.090;2023-02-12T08:48:51;37.83;;;16.15;;
75691;SDS011;64307;52.508;6.090;2023-02-12T08:51:20;34.20;;;15.43;;
75691;SDS011;64307;52.508;6.090;2023-02-12T08:53:47;37.17;;;16.00;;
75691;SDS011;64307;52.508;6.090;2023-02-12T08:56:16;33.60;;;15.95;;
75691;SDS011;64307;52.508;6.090;2023-02-12T08:58:43;35.08;;;15.23;;
75691;SDS011;64307;52.508;6.090;2023-02-12T09:01:10;36.72;;;16.38;;
75691;SDS011;64307;52.508;6.090;2023-02-12T09:03:37;41.08;;;15.35;;
75691;SDS011;64307;52.508;6.090;2023-02-12T09:06:03;34.63;;;15.48;;
75691;SDS011;64307;52.508;6.090;2023-02-12T09:08:30;33.78;;;14.77;;
75691;SDS011;64307;52.508;6.090;2023-02-12T09:10:56;33.95;;;14.52;;
75691;SDS011;64307;52.508;6.090;2023-02-12T09:13:21;33.10;;;14.32;;
75691;SDS011;64307;52.508;6.090;2023-02-12T09:15:46;35.67;;;15.93;;
75691;SDS011;64307;52.508;6.090;2023-02-12T09:18:12;32.28;;;14.88;;
75691;SDS011;64307;52.508;6.090;2023-02-12T09:20:40;35.22;;;14.85;;
75691;SDS011;64307;52.508;6.090;2023-02-12T09:23:07;34.47;;;14.88;;
75691;SDS011;64307;52.508;6.090;2023-02-12T09:25:40;33.22;;;14.88;;
75691;SDS011;64307;52.508;6.090;2023-02-12T09:28:07;35.75;;;15.75;;
75691;SDS011;64307;52.508;6.090;2023-02-12T09:30:32;32.35;;;13.90;;
75691;SDS011;64307;52.508;6.090;2023-02-12T09:32:58;36.47;;;15.45;;
75691;SDS011;64307;52.508;6.090;2023-02-12T09:35:23;34.38;;;14.88;;
75691;SDS011;64307;52.508;6.090;2023-02-12T09:37:48;33.97;;;15.50;;
75691;SDS011;64307;52.508;6.090;2023-02-12T09:40:21;33.70;;;15.25;;
75691;SDS011;64307;52.508;6.090;2023-02-12T09:42:58;32.40;;;14.82;;
75691;SDS011;64307;52.508;6.090;2023-02-12T09:46:19;32.40;;;14.80;;
75691;SDS011;64307;52.508;6.090;2023-02-12T09:49:10;34.25;;;14.57;;
75691;SDS011;64307;52.508;6.090;2023-02-12T09:51:43;34.25;;;14.93;;
75691;SDS011;64307;52.508;6.090;2023-02-12T09:54:14;33.42;;;14.18;;
75691;SDS011;64307;52.508;6.090;2023-02-12T09:56:46;31.77;;;14.15;;
75691;SDS011;64307;52.508;6.090;2023-02-12T10:02:10;29.73;;;14.50;;
75691;SDS011;64307;52.508;6.090;2023-02-12T10:04:38;35.78;;;14.20;;
75691;SDS011;64307;52.508;6.090;2023-02-12T10:07:10;30.25;;;14.57;;
75691;SDS011;64307;52.508;6.090;2023-02-12T10:12:50;27.70;;;12.82;;
75691;SDS011;64307;52.508;6.090;2023-02-12T10:15:33;30.63;;;14.02;;
75691;SDS011;64307;52.508;6.090;2023-02-12T10:18:10;27.58;;;12.93;;
75691;SDS011;64307;52.508;6.090;2023-02-12T10:26:28;30.33;;;13.02;;
75691;SDS011;64307;52.508;6.090;2023-02-12T10:29:18;29.80;;;13.43;;
75691;SDS011;64307;52.508;6.090;2023-02-12T10:31:48;28.20;;;12.73;;
75691;SDS011;64307;52.508;6.090;2023-02-12T10:34:21;30.33;;;13.27;;
75691;SDS011;64307;52.508;6.090;2023-02-12T10:36:50;28.77;;;12.77;;
75691;SDS011;64307;52.508;6.090;2023-02-12T10:39:30;30.25;;;14.48;;
75691;SDS011;64307;52.508;6.090;2023-02-12T10:42:15;29.77;;;13.02;;
75691;SDS011;64307;52.508;6.090;2023-02-12T10:44:45;26.02;;;12.20;;
75691;SDS011;64307;52.508;6.090;2023-02-12T10:49:59;28.27;;;12.93;;
75691;SDS011;64307;52.508;6.090;2023-02-12T10:55:28;26.83;;;12.15;;
75691;SDS011;64307;52.508;6.090;2023-02-12T10:57:56;23.75;;;11.55;;
75691;SDS011;64307;52.508;6.090;2023-02-12T11:00:25;27.67;;;12.98;;
75691;SDS011;64307;52.508;6.090;2023-02-12T11:03:00;32.45;;;14.50;;
75691;SDS011;64307;52.508;6.090;2023-02-12T11:05:35;33.67;;;16.40;;
75691;SDS011;64307;52.508;6.090;2023-02-12T11:08:04;31.38;;;15.02;;
75691;SDS011;64307;52.508;6.090;2023-02-12T11:12:57;27.70;;;13.27;;
75691;SDS011;64307;52.508;6.090;2023-02-12T11:15:24;27.45;;;13.75;;
75691;SDS011;64307;52.508;6.090;2023-02-12T11:20:29;31.10;;;13.13;;
75691;SDS011;64307;52.508;6.090;2023-02-12T11:23:03;25.73;;;12.25;;
75691;SDS011;64307;52.508;6.090;2023-02-12T11:25:31;25.60;;;11.55;;
75691;SDS011;64307;52.508;6.090;2023-02-12T11:30:29;23.25;;;10.18;;
75691;SDS011;64307;52.508;6.090;2023-02-12T11:35:38;21.40;;;9.18;;
75691;SDS011;64307;52.508;6.090;2023-02-12T11:38:21;21.23;;;9.00;;
75691;SDS011;64307;52.508;6.090;2023-02-12T11:40:52;21.50;;;9.73;;
75691;SDS011;64307;52.508;6.090;2023-02-12T11:43:20;18.67;;;8.85;;
75691;SDS011;64307;52.508;6.090;2023-02-12T11:50:46;14.68;;;7.30;;
75691;SDS011;64307;52.508;6.090;2023-02-12T11:53:18;14.77;;;6.97;;
75691;SDS011;64307;52.508;6.090;2023-02-12T11:56:00;17.05;;;7.93;;
75691;SDS011;64307;52.508;6.090;2023-02-12T11:58:28;16.60;;;8.05;;
75691;SDS011;64307;52.508;6.090;2023-02-12T12:03:39;13.90;;;7.30;;
75691;SDS011;64307;52.508;6.090;2023-02-12T12:06:30;15.77;;;7.70;;
75691;SDS011;64307;52.508;6.090;2023-02-12T12:09:20;13.27;;;6.57;;
75691;SDS011;64307;52.508;6.090;2023-02-12T12:14:29;17.48;;;8.18;;
75691;SDS011;64307;52.508;6.090;2023-02-12T12:17:18;15.90;;;7.95;;
75691;SDS011;64307;52.508;6.090;2023-02-12T12:20:13;17.52;;;7.90;;
75691;SDS011;64307;52.508;6.090;2023-02-12T12:47:01;16.20;;;7.93;;
75691;SDS011;64307;52.508;6.090;2023-02-12T12:49:44;12.98;;;7.00;;
75691;SDS011;64307;52.508;6.090;2023-02-12T12:52:25;14.43;;;7.20;;
75691;SDS011;64307;52.508;6.090;2023-02-12T12:57:41;11.70;;;5.70;;
75691;SDS011;64307;52.508;6.090;2023-02-12T13:00:23;12.32;;;6.13;;
75691;SDS011;64307;52.508;6.090;2023-02-12T13:08:27;11.57;;;5.85;;
75691;SDS011;64307;52.508;6.090;2023-02-12T13:13:56;12.85;;;5.85;;
75691;SDS011;64307;52.508;6.090;2023-02-12T13:16:48;10.85;;;5.32;;
75691;SDS011;64307;52.508;6.090;2023-02-12T13:19:31;11.68;;;5.72;;
75691;SDS011;64307;52.508;6.090;2023-02-12T13:22:12;12.75;;;5.97;;
75691;SDS011;64307;52.508;6.090;2023-02-12T13:24:50;17.40;;;7.53;;
75691;SDS011;64307;52.508;6.090;2023-02-12T13:27:19;14.13;;;6.63;;
75691;SDS011;64307;52.508;6.090;2023-02-12T13:30:27;20.10;;;10.50;;
75691;SDS011;64307;52.508;6.090;2023-02-12T13:32:54;21.35;;;10.88;;
75691;SDS011;64307;52.508;6.090;2023-02-12T13:35:38;23.35;;;11.38;;
75691;SDS011;64307;52.508;6.090;2023-02-12T13:38:07;23.27;;;11.80;;
75691;SDS011;64307;52.508;6.090;2023-02-12T13:40:39;22.67;;;11.25;;
75691;SDS011;64307;52.508;6.090;2023-02-12T13:51:19;23.85;;;10.27;;
75691;SDS011;64307;52.508;6.090;2023-02-12T13:56:54;16.70;;;8.25;;
75691;SDS011;64307;52.508;6.090;2023-02-12T14:01:56;13.75;;;6.78;;
75691;SDS011;64307;52.508;6.090;2023-02-12T14:04:26;12.68;;;6.20;;
75691;SDS011;64307;52.508;6.090;2023-02-12T14:09:40;12.02;;;5.35;;
75691;SDS011;64307;52.508;6.090;2023-02-12T14:12:11;10.93;;;6.35;;
75691;SDS011;64307;52.508;6.090;2023-02-12T14:14:41;10.63;;;5.88;;
75691;SDS011;64307;52.508;6.090;2023-02-12T14:28:38;8.68;;;4.93;;
75691;SDS011;64307;52.508;6.090;2023-02-12T14:33:47;11.13;;;5.57;;
75691;SDS011;64307;52.508;6.090;2023-02-12T14:36:16;11.55;;;5.30;;
75691;SDS011;64307;52.508;6.090;2023-02-12T14:41:21;11.70;;;6.35;;
75691;SDS011;64307;52.508;6.090;2023-02-12T14:49:32;14.50;;;7.72;;
75691;SDS011;64307;52.508;6.090;2023-02-12T14:52:23;13.93;;;6.65;;
75691;SDS011;64307;52.508;6.090;2023-02-12T14:55:03;13.40;;;6.95;;
75691;SDS011;64307;52.508;6.090;2023-02-12T14:57:37;14.02;;;7.28;;
75691;SDS011;64307;52.508;6.090;2023-02-12T15:02:44;14.50;;;8.65;;
75691;SDS011;64307;52.508;6.090;2023-02-12T15:10:37;17.23;;;8.93;;
75691;SDS011;64307;52.508;6.090;2023-02-12T15:15:54;17.35;;;9.10;;
75691;SDS011;64307;52.508;6.090;2023-02-12T15:18:28;16.58;;;8.57;;
75691;SDS011;64307;52.508;6.090;2023-02-12T15:21:19;17.88;;;8.60;;
75691;SDS011;64307;52.508;6.090;2023-02-12T15:26:28;18.00;;;11.48;;
75691;SDS011;64307;52.508;6.090;2023-02-12T15:28:56;20.05;;;10.38;;
75691;SDS011;64307;52.508;6.090;2023-02-12T15:31:24;19.20;;;10.18;;
75691;SDS011;64307;52.508;6.090;2023-02-12T15:33:51;20.00;;;10.35;;
75691;SDS011;64307;52.508;6.090;2023-02-12T15:36:20;20.70;;;10.77;;
75691;SDS011;64307;52.508;6.090;2023-02-12T15:38:49;19.73;;;11.27;;
75691;SDS011;64307;52.508;6.090;2023-02-12T15:43:53;20.55;;;10.60;;
75691;SDS011;64307;52.508;6.090;2023-02-12T15:48:45;20.02;;;11.38;;
75691;SDS011;64307;52.508;6.090;2023-02-12T15:51:27;23.02;;;11.60;;
75691;SDS011;64307;52.508;6.090;2023-02-12T15:53:57;20.33;;;10.93;;
75691;SDS011;64307;52.508;6.090;2023-02-12T15:56:24;22.73;;;10.90;;
75691;SDS011;64307;52.508;6.090;2023-02-12T15:58:51;22.80;;;12.57;;
75691;SDS011;64307;52.508;6.090;2023-02-12T16:01:22;22.55;;;11.05;;
75691;SDS011;64307;52.508;6.090;2023-02-12T16:03:56;19.27;;;10.57;;
75691;SDS011;64307;52.508;6.090;2023-02-12T16:06:24;21.63;;;11.15;;
75691;SDS011;64307;52.508;6.090;2023-02-12T16:09:05;20.75;;;11.95;;
75691;SDS011;64307;52.508;6.090;2023-02-12T16:11:33;23.48;;;11.73;;
75691;SDS011;64307;52.508;6.090;2023-02-12T16:14:03;22.63;;;11.35;;
75691;SDS011;64307;52.508;6.090;2023-02-12T16:16:45;21.48;;;11.35;;
75691;SDS011;64307;52.508;6.090;2023-02-12T16:19:22;20.42;;;11.13;;
75691;SDS011;64307;52.508;6.090;2023-02-12T16:21:50;22.55;;;12.43;;
75691;SDS011;64307;52.508;6.090;2023-02-12T16:24:28;24.25;;;12.07;;
75691;SDS011;64307;52.508;6.090;2023-02-12T16:26:56;30.30;;;16.60;;
75691;SDS011;64307;52.508;6.090;2023-02-12T16:29:25;26.90;;;14.13;;
75691;SDS011;64307;52.508;6.090;2023-02-12T16:31:56;24.48;;;12.73;;
75691;SDS011;64307;52.508;6.090;2023-02-12T16:34:31;23.05;;;12.05;;
75691;SDS011;64307;52.508;6.090;2023-02-12T16:37:03;25.85;;;12.60;;
75691;SDS011;64307;52.508;6.090;2023-02-12T16:44:50;22.38;;;11.43;;
75691;SDS011;64307;52.508;6.090;2023-02-12T16:47:18;22.70;;;12.57;;
75691;SDS011;64307;52.508;6.090;2023-02-12T16:49:56;29.45;;;15.50;;
75691;SDS011;64307;52.508;6.090;2023-02-12T16:52:31;25.05;;;12.60;;
75691;SDS011;64307;52.508;6.090;2023-02-12T16:55:02;25.10;;;13.75;;
75691;SDS011;64307;52.508;6.090;2023-02-12T16:59:53;25.33;;;13.10;;
75691;SDS011;64307;52.508;6.090;2023-02-12T17:02:19;26.58;;;13.25;;
75691;SDS011;64307;52.508;6.090;2023-02-12T17:04:44;30.10;;;15.80;;
75691;SDS011;64307;52.508;6.090;2023-02-12T17:07:22;26.70;;;12.90;;
75691;SDS011;64307;52.508;6.090;2023-02-12T17:09:52;22.45;;;11.90;;
75691;SDS011;64307;52.508;6.090;2023-02-12T17:12:18;24.17;;;12.07;;
75691;SDS011;64307;52.508;6.090;2023-02-12T17:17:09;20.30;;;10.30;;
75691;SDS011;64307;52.508;6.090;2023-02-12T17:19:34;18.63;;;8.88;;
75691;SDS011;64307;52.508;6.090;2023-02-12T17:22:00;22.75;;;10.93;;
75691;SDS011;64307;52.508;6.090;2023-02-12T17:24:28;21.48;;;10.65;;
75691;SDS011;64307;52.508;6.090;2023-02-12T17:26:55;22.15;;;10.32;;
75691;SDS011;64307;52.508;6.090;2023-02-12T17:29:21;22.65;;;11.38;;
75691;SDS011;64307;52.508;6.090;2023-02-12T17:31:48;24.00;;;11.43;;
75691;SDS011;64307;52.508;6.090;2023-02-12T17:34:15;21.00;;;10.35;;
75691;SDS011;64307;52.508;6.090;2023-02-12T17:36:41;21.27;;;10.70;;
75691;SDS011;64307;52.508;6.090;2023-02-12T17:39:07;23.23;;;10.30;;
75691;SDS011;64307;52.508;6.090;2023-02-12T17:41:34;21.05;;;10.38;;
75691;SDS011;64307;52.508;6.090;2023-02-12T17:43:59;21.88;;;10.50;;
75691;SDS011;64307;52.508;6.090;2023-02-12T17:46:26;22.88;;;11.27;;
75691;SDS011;64307;52.508;6.090;2023-02-12T17:48:52;24.13;;;11.27;;
75691;SDS011;64307;52.508;6.090;2023-02-12T17:51:17;19.63;;;9.73;;
75691;SDS011;64307;52.508;6.090;2023-02-12T17:56:12;22.02;;;10.13;;
75691;SDS011;64307;52.508;6.090;2023-02-12T17:58:42;22.45;;;10.75;;
75691;SDS011;64307;52.508;6.090;2023-02-12T18:03:34;19.70;;;9.15;;